createdAt,value
2018-02-03T00:01:08.089Z,4.60
2018-02-03T00:03:36.384Z,12.82
2018-02-03T00:06:04.488Z,23.08
2018-02-03T00:08:32.610Z,7.50
2018-02-03T00:11:00.729Z,6.22
2018-02-03T00:13:28.852Z,5.85
2018-02-03T00:15:57.729Z,5.18
2018-02-03T00:18:26.628Z,5.45
2018-02-03T00:20:55.514Z,4.70
2018-02-03T00:23:24.403Z,4.47
2018-02-03T00:25:53.295Z,4.30
2018-02-03T00:28:22.179Z,3.78
2018-02-03T00:30:51.058Z,4.90
2018-02-03T00:33:19.951Z,4.60
2018-02-03T00:35:48.845Z,4.62
2018-02-03T00:38:17.734Z,3.70
2018-02-03T00:40:46.660Z,3.83
2018-02-03T00:43:15.526Z,4.00
2018-02-03T00:45:44.511Z,4.28
2018-02-03T00:48:13.453Z,5.32
2018-02-03T00:50:41.575Z,3.67
2018-02-03T00:53:10.464Z,3.80
2018-02-03T00:55:39.354Z,4.80
2018-02-03T00:58:08.260Z,3.78
2018-02-03T01:00:36.422Z,4.20
2018-02-03T01:03:05.306Z,4.20
2018-02-03T01:05:34.191Z,4.75
2018-02-03T01:08:03.089Z,4.97
2018-02-03T01:10:31.975Z,4.68
2018-02-03T01:13:00.865Z,5.12
2018-02-03T01:15:29.777Z,4.05
2018-02-03T01:17:57.890Z,4.95
2018-02-03T01:20:26.048Z,5.30
2018-02-03T01:22:54.134Z,4.70
2018-02-03T01:25:22.337Z,4.95
2018-02-03T01:27:51.316Z,4.85
2018-02-03T01:30:19.439Z,4.82
2018-02-03T01:32:47.587Z,5.93
2018-02-03T01:35:16.461Z,4.22
2018-02-03T01:37:45.375Z,4.55
2018-02-03T01:40:14.250Z,4.30
2018-02-03T01:42:43.135Z,4.72
2018-02-03T01:45:12.018Z,4.07
2018-02-03T01:47:52.147Z,4.97
2018-02-03T01:50:20.249Z,4.20
2018-02-03T01:52:49.132Z,5.60
2018-02-03T01:55:17.278Z,5.22
2018-02-03T01:57:45.397Z,4.75
2018-02-03T02:00:14.436Z,4.50
2018-02-03T02:02:42.564Z,4.43
2018-02-03T02:05:10.675Z,4.37
2018-02-03T02:07:38.951Z,4.70
2018-02-03T02:10:07.775Z,4.12
2018-02-03T02:12:35.953Z,4.80
2018-02-03T02:15:04.833Z,4.70
2018-02-03T02:17:32.945Z,4.22
2018-02-03T02:20:01.098Z,4.40
2018-02-03T02:22:29.984Z,4.00
2018-02-03T02:24:58.919Z,5.00
2018-02-03T02:27:27.045Z,4.12
2018-02-03T02:29:55.951Z,4.30
2018-02-03T02:32:24.079Z,4.60
2018-02-03T02:34:52.218Z,5.07
2018-02-03T02:37:20.354Z,4.87
2018-02-03T02:39:49.233Z,4.60
2018-02-03T02:42:17.369Z,4.15
2018-02-03T02:44:45.487Z,4.82
2018-02-03T02:47:14.380Z,4.75
2018-02-03T02:49:43.384Z,4.85
2018-02-03T02:52:11.533Z,4.65
2018-02-03T02:54:40.418Z,4.95
2018-02-03T02:57:09.350Z,4.60
2018-02-03T02:59:38.208Z,4.82
2018-02-03T03:02:07.091Z,5.80
2018-02-03T03:04:36.095Z,5.10
2018-02-03T03:07:04.975Z,4.80
2018-02-03T03:09:33.877Z,4.95
2018-02-03T03:12:02.747Z,5.18
2018-02-03T03:14:31.635Z,6.28
2018-02-03T03:16:59.760Z,5.40
2018-02-03T03:19:28.031Z,5.18
2018-02-03T03:21:56.930Z,5.40
2018-02-03T03:24:25.103Z,4.75
2018-02-03T03:26:53.211Z,5.50
2018-02-03T03:29:21.328Z,5.47
2018-02-03T03:31:49.444Z,5.12
2018-02-03T03:34:17.633Z,5.30
2018-02-03T03:36:45.750Z,5.40
2018-02-03T03:39:13.925Z,5.40
2018-02-03T03:41:42.799Z,5.30
2018-02-03T03:44:11.696Z,6.32
2018-02-03T03:46:39.826Z,5.65
2018-02-03T03:49:07.934Z,6.18
2018-02-03T03:51:36.061Z,6.07
2018-02-03T03:54:05.678Z,5.82
2018-02-03T03:56:33.802Z,5.03
2018-02-03T03:59:01.922Z,5.68
2018-02-03T04:01:30.078Z,6.83
2018-02-03T04:03:58.273Z,6.37
2018-02-03T04:06:27.170Z,6.18
2018-02-03T04:08:56.069Z,6.28
2018-02-03T04:11:25.798Z,6.22
2018-02-03T04:14:00.202Z,5.70
2018-02-03T04:16:29.091Z,6.30
2018-02-03T04:18:58.007Z,6.60
2018-02-03T04:21:26.869Z,6.28
2018-02-03T04:23:55.775Z,7.30
2018-02-03T04:26:23.925Z,7.72
2018-02-03T04:28:52.809Z,7.85
2018-02-03T04:31:21.694Z,6.65
2018-02-03T04:33:49.818Z,7.22
2018-02-03T04:36:17.984Z,7.03
2018-02-03T04:38:46.977Z,6.97
2018-02-03T04:41:15.094Z,7.07
2018-02-03T04:43:43.192Z,7.50
2018-02-03T04:46:11.339Z,8.23
2018-02-03T04:48:39.466Z,7.85
2018-02-03T04:51:08.523Z,7.80
2018-02-03T04:53:37.421Z,7.93
2018-02-03T04:56:06.311Z,8.20
2018-02-03T04:58:35.298Z,7.70
2018-02-03T05:01:04.172Z,7.60
2018-02-03T05:03:32.314Z,7.95
2018-02-03T05:06:00.432Z,8.10
2018-02-03T05:08:29.331Z,7.20
2018-02-03T05:10:57.452Z,7.50
2018-02-03T05:13:25.577Z,7.75
2018-02-03T05:15:53.731Z,6.90
2018-02-03T05:18:24.457Z,8.48
2018-02-03T05:20:52.646Z,7.80
2018-02-03T05:23:21.635Z,9.97
2018-02-03T05:25:50.536Z,8.95
2018-02-03T05:28:18.657Z,6.87
2018-02-03T05:30:46.781Z,7.18
2018-02-03T05:33:15.675Z,7.68
2018-02-03T05:35:43.799Z,10.75
2018-02-03T05:38:11.955Z,11.60
2018-02-03T05:40:40.095Z,13.40
2018-02-03T05:43:08.218Z,9.02
2018-02-03T05:45:36.357Z,8.20
2018-02-03T05:48:04.488Z,7.35
2018-02-03T05:50:34.109Z,7.10
2018-02-03T05:53:03.002Z,6.55
2018-02-03T05:55:31.289Z,6.62
2018-02-03T05:58:01.651Z,7.20
2018-02-03T06:00:29.819Z,7.37
2018-02-03T06:02:57.922Z,6.53
2018-02-03T06:05:26.790Z,6.62
2018-02-03T06:07:54.922Z,6.73
2018-02-03T06:10:23.052Z,7.28
2018-02-03T06:12:51.195Z,6.80
2018-02-03T06:15:19.313Z,6.62
2018-02-03T06:17:48.218Z,6.78
2018-02-03T06:20:16.332Z,6.93
2018-02-03T06:22:44.438Z,6.30
2018-02-03T06:25:13.442Z,6.53
2018-02-03T06:27:41.595Z,6.50
2018-02-03T06:30:10.610Z,6.82
2018-02-03T06:32:38.732Z,6.82
2018-02-03T06:35:06.869Z,6.28
2018-02-03T06:37:34.983Z,6.83
2018-02-03T06:40:03.183Z,6.25
2018-02-03T06:42:32.172Z,6.60
2018-02-03T06:45:01.066Z,6.87
2018-02-03T06:47:29.211Z,6.93
2018-02-03T06:49:57.323Z,6.43
2018-02-03T06:52:26.379Z,6.77
2018-02-03T06:54:54.535Z,6.03
2018-02-03T06:57:22.655Z,6.30
2018-02-03T06:59:51.595Z,6.72
2018-02-03T07:02:19.737Z,6.20
2018-02-03T07:04:47.922Z,5.93
2018-02-03T07:07:16.065Z,6.87
2018-02-03T07:09:44.978Z,6.18
2018-02-03T07:12:13.104Z,6.05
2018-02-03T07:14:41.231Z,5.68
2018-02-03T07:17:09.346Z,6.50
2018-02-03T07:19:37.485Z,6.30
2018-02-03T07:22:05.631Z,6.27
2018-02-03T07:24:34.503Z,6.65
2018-02-03T07:27:03.399Z,6.85
2018-02-03T07:29:32.286Z,6.62
2018-02-03T07:32:01.182Z,6.53
2018-02-03T07:34:30.098Z,5.93
2018-02-03T07:36:58.202Z,6.32
2018-02-03T07:39:26.344Z,6.50
2018-02-03T07:41:54.441Z,6.65
2018-02-03T07:44:22.596Z,6.78
2018-02-03T07:46:50.714Z,7.28
2018-02-03T07:49:19.604Z,6.68
2018-02-03T07:51:48.496Z,7.23
2018-02-03T07:54:17.380Z,7.43
2018-02-03T07:56:46.285Z,6.50
2018-02-03T07:59:15.271Z,7.20
2018-02-03T08:01:44.174Z,6.63
2018-02-03T08:04:12.291Z,7.22
2018-02-03T08:06:40.418Z,7.07
2018-02-03T08:09:08.553Z,8.18
2018-02-03T08:11:36.667Z,7.15
2018-02-03T08:14:05.557Z,8.23
2018-02-03T08:16:33.690Z,7.85
2018-02-03T08:19:01.833Z,8.15
2018-02-03T08:21:29.955Z,8.40
2018-02-03T08:23:58.833Z,8.30
2018-02-03T08:26:26.977Z,8.70
2018-02-03T08:28:55.109Z,8.25
2018-02-03T08:31:23.271Z,7.93
2018-02-03T08:33:52.148Z,8.10
2018-02-03T08:36:21.052Z,8.95
2018-02-03T08:38:49.945Z,8.70
2018-02-03T08:41:18.085Z,8.40
2018-02-03T08:43:46.291Z,8.55
2018-02-03T08:46:15.177Z,9.63
2018-02-03T08:48:44.156Z,8.43
2018-02-03T08:51:13.057Z,8.48
2018-02-03T08:53:41.991Z,7.33
2018-02-03T08:56:10.127Z,7.75
2018-02-03T08:58:39.033Z,8.00
2018-02-03T09:01:07.180Z,7.55
2018-02-03T09:03:36.184Z,7.10
2018-02-03T09:06:04.323Z,8.50
2018-02-03T09:08:32.511Z,7.00
2018-02-03T09:11:00.710Z,7.50
2018-02-03T09:13:28.840Z,6.90
2018-02-03T09:15:56.961Z,6.50
2018-02-03T09:18:25.106Z,6.82
2018-02-03T09:20:53.401Z,7.30
2018-02-03T09:23:21.526Z,6.72
2018-02-03T09:25:51.187Z,7.37
2018-02-03T09:28:19.333Z,6.78
2018-02-03T09:30:48.210Z,6.40
2018-02-03T09:33:16.330Z,6.78
2018-02-03T09:35:44.476Z,6.60
2018-02-03T09:38:13.457Z,6.53
2018-02-03T09:40:42.362Z,7.20
2018-02-03T09:43:10.497Z,6.78
2018-02-03T09:45:38.658Z,7.25
2018-02-03T09:48:06.782Z,6.30
2018-02-03T09:50:34.918Z,6.40
2018-02-03T09:53:03.098Z,5.47
2018-02-03T09:55:31.200Z,6.50
2018-02-03T09:57:59.618Z,6.60
2018-02-03T10:00:27.741Z,7.07
2018-02-03T10:02:55.876Z,6.57
2018-02-03T10:05:24.035Z,6.68
2018-02-03T10:07:52.156Z,6.13
2018-02-03T10:10:21.135Z,6.25
2018-02-03T10:12:50.037Z,6.37
2018-02-03T10:15:19.063Z,5.60
2018-02-03T10:17:47.158Z,6.50
2018-02-03T10:20:15.294Z,6.75
2018-02-03T10:22:43.602Z,5.90
2018-02-03T10:25:11.752Z,6.55
2018-02-03T10:27:39.862Z,6.28
2018-02-03T10:30:08.015Z,7.45
2018-02-03T10:32:36.144Z,7.20
2018-02-03T10:35:04.265Z,6.87
2018-02-03T10:37:32.404Z,7.00
2018-02-03T10:40:00.532Z,5.72
2018-02-03T10:42:28.671Z,6.57
2018-02-03T10:44:56.902Z,6.18
2018-02-03T10:47:25.781Z,5.87
2018-02-03T10:49:54.768Z,6.80
2018-02-03T10:52:23.678Z,5.93
2018-02-03T10:54:52.584Z,7.05
2018-02-03T10:57:20.696Z,6.12
2018-02-03T10:59:48.922Z,7.47
2018-02-03T11:02:17.792Z,6.70
2018-02-03T11:04:46.888Z,7.00
2018-02-03T11:07:15.783Z,7.03
2018-02-03T11:09:43.907Z,6.85
2018-02-03T11:12:12.045Z,5.87
2018-02-03T11:14:40.920Z,6.85
2018-02-03T11:17:09.080Z,6.90
2018-02-03T11:19:37.943Z,7.25
2018-02-03T11:22:06.062Z,6.27
2018-02-03T11:24:34.224Z,6.82
2018-02-03T11:27:03.097Z,6.68
2018-02-03T11:29:32.007Z,6.78
2018-02-03T11:32:00.137Z,6.87
2018-02-03T11:34:28.270Z,7.15
2018-02-03T11:36:56.395Z,7.40
2018-02-03T11:39:24.627Z,6.95
2018-02-03T11:41:52.723Z,6.07
2018-02-03T11:44:20.881Z,6.25
2018-02-03T11:46:49.105Z,6.82
2018-02-03T11:49:17.992Z,5.95
2018-02-03T11:51:46.904Z,5.60
2018-02-03T11:54:15.029Z,5.60
2018-02-03T11:56:43.170Z,5.97
2018-02-03T11:59:11.289Z,5.43
2018-02-03T12:01:39.425Z,6.60
2018-02-03T12:04:07.541Z,6.75
2018-02-03T12:06:36.432Z,6.57
2018-02-03T12:09:05.348Z,9.10
2018-02-03T12:11:33.479Z,8.50
2018-02-03T12:14:03.121Z,7.20
2018-02-03T12:16:31.264Z,5.73
2018-02-03T12:19:00.914Z,5.60
2018-02-03T12:21:29.024Z,4.68
2018-02-03T12:23:58.656Z,5.25
2018-02-03T12:26:26.765Z,5.18
2018-02-03T12:28:54.878Z,5.37
2018-02-03T12:31:23.870Z,6.20
2018-02-03T12:33:52.080Z,6.47
2018-02-03T12:36:20.268Z,6.50
2018-02-03T12:38:49.136Z,5.40
2018-02-03T12:41:18.022Z,6.60
2018-02-03T12:43:46.903Z,6.60
2018-02-03T12:46:15.799Z,6.05
2018-02-03T12:48:44.713Z,6.43
2018-02-03T12:51:12.832Z,7.05
2018-02-03T12:53:40.975Z,6.60
2018-02-03T12:56:09.097Z,5.72
2018-02-03T12:58:37.990Z,6.93
2018-02-03T13:01:06.116Z,6.55
2018-02-03T13:03:34.245Z,6.40
2018-02-03T13:06:03.167Z,6.95
2018-02-03T13:08:31.275Z,6.03
2018-02-03T13:10:59.479Z,4.78
2018-02-03T13:13:27.590Z,4.00
2018-02-03T13:15:55.743Z,4.00
2018-02-03T13:18:23.893Z,4.20
2018-02-03T13:20:52.007Z,4.40
2018-02-03T13:23:20.150Z,4.90
2018-02-03T13:25:49.035Z,5.03
2018-02-03T13:28:18.020Z,5.03
2018-02-03T13:30:46.923Z,4.35
2018-02-03T13:33:15.873Z,4.45
2018-02-03T13:35:43.977Z,4.20
2018-02-03T13:38:12.861Z,4.82
2018-02-03T13:40:41.766Z,4.55
2018-02-03T13:43:10.051Z,5.20
2018-02-03T13:45:38.198Z,5.53
2018-02-03T13:48:06.314Z,4.97
2018-02-03T13:50:34.445Z,5.30
2018-02-03T13:53:03.341Z,5.70
2018-02-03T13:55:32.270Z,5.93
2018-02-03T13:58:00.377Z,5.55
2018-02-03T14:00:28.502Z,5.50
2018-02-03T14:02:56.639Z,5.95
2018-02-03T14:05:25.518Z,4.80
2018-02-03T14:07:53.669Z,5.10
2018-02-03T14:10:21.801Z,5.75
2018-02-03T14:12:50.697Z,6.05
2018-02-03T14:15:18.814Z,5.97
2018-02-03T14:17:46.941Z,5.40
2018-02-03T14:20:15.067Z,7.15
2018-02-03T14:22:43.200Z,5.30
2018-02-03T14:25:11.421Z,5.90
2018-02-03T14:27:40.299Z,5.28
2018-02-03T14:30:08.418Z,5.60
2018-02-03T14:32:36.545Z,5.60
2018-02-03T14:35:04.762Z,6.05
2018-02-03T14:37:33.632Z,5.53
2018-02-03T14:40:01.763Z,5.90
2018-02-03T14:42:29.900Z,5.50
2018-02-03T14:44:58.006Z,5.60
2018-02-03T14:47:26.120Z,5.57
2018-02-03T14:49:55.044Z,5.72
2018-02-03T14:52:23.168Z,5.60
2018-02-03T14:54:52.112Z,6.50
2018-02-03T14:57:20.223Z,6.18
2018-02-03T14:59:49.222Z,6.25
2018-02-03T15:02:18.126Z,5.68
2018-02-03T15:04:47.022Z,5.85
2018-02-03T15:07:15.189Z,7.03
2018-02-03T15:09:44.076Z,7.53
2018-02-03T15:12:13.044Z,7.90
2018-02-03T15:14:41.959Z,6.70
2018-02-03T15:17:10.843Z,7.03
2018-02-03T15:19:39.837Z,6.00
2018-02-03T15:22:08.737Z,7.77
2018-02-03T15:24:37.642Z,7.32
2018-02-03T15:27:05.777Z,8.13
2018-02-03T15:29:33.890Z,6.40
2018-02-03T15:32:02.016Z,6.65
2018-02-03T15:34:30.248Z,6.40
2018-02-03T15:36:58.367Z,7.15
2018-02-03T15:39:27.271Z,9.10
2018-02-03T15:41:56.186Z,6.87
2018-02-03T15:44:24.339Z,6.15
2018-02-03T15:46:52.426Z,6.47
2018-02-03T15:49:20.559Z,6.97
2018-02-03T15:51:48.675Z,6.40
2018-02-03T15:54:16.826Z,6.65
2018-02-03T15:56:45.717Z,6.20
2018-02-03T15:59:14.659Z,6.97
2018-02-03T16:01:42.763Z,8.67
2018-02-03T16:04:11.651Z,7.82
2018-02-03T16:06:39.781Z,7.40
2018-02-03T16:09:07.944Z,5.85
2018-02-03T16:11:36.075Z,6.30
2018-02-03T16:14:04.204Z,6.20
2018-02-03T16:16:32.325Z,6.78
2018-02-03T16:19:01.227Z,6.25
2018-02-03T16:21:30.105Z,5.82
2018-02-03T16:23:58.305Z,6.18
2018-02-03T16:26:27.192Z,9.82
2018-02-03T16:28:55.315Z,7.43
2018-02-03T16:33:56.938Z,7.62
2018-02-03T16:36:25.072Z,12.48
2018-02-03T16:38:53.995Z,9.90
2018-02-03T16:41:22.890Z,8.88
2018-02-03T16:43:51.085Z,6.62
2018-02-03T16:46:19.205Z,6.22
2018-02-03T16:48:48.094Z,4.45
2018-02-03T16:51:16.986Z,3.87
2018-02-03T16:53:45.901Z,3.60
2018-02-03T16:56:14.049Z,3.20
2018-02-03T16:58:42.946Z,3.62
2018-02-03T17:01:11.832Z,3.60
2018-02-03T17:03:39.988Z,3.75
2018-02-03T17:06:08.874Z,3.83
2018-02-03T17:08:36.998Z,3.97
2018-02-03T17:11:05.136Z,4.35
2018-02-03T17:13:34.074Z,3.58
2018-02-03T17:16:02.201Z,4.03
2018-02-03T17:18:31.103Z,4.35
2018-02-03T17:20:59.242Z,4.05
2018-02-03T17:23:27.356Z,4.00
2018-02-03T17:25:55.534Z,3.85
2018-02-03T17:28:23.667Z,5.32
2018-02-03T17:30:53.324Z,3.80
2018-02-03T17:33:21.421Z,6.07
2018-02-03T17:35:49.576Z,7.32
2018-02-03T17:38:23.249Z,5.22
2018-02-03T17:40:51.379Z,4.70
2018-02-03T17:43:19.530Z,4.25
2018-02-03T17:45:53.478Z,4.80
2018-02-03T17:48:21.596Z,7.03
2018-02-03T17:50:49.694Z,6.62
2018-02-03T17:53:17.912Z,5.07
2018-02-03T17:55:52.531Z,5.03
2018-02-03T17:58:21.478Z,5.37
2018-02-03T18:00:49.595Z,5.10
2018-02-03T18:03:17.731Z,4.32
2018-02-03T18:05:45.903Z,4.40
2018-02-03T18:08:14.027Z,4.70
2018-02-03T18:10:42.157Z,4.80
2018-02-03T18:13:10.285Z,4.30
2018-02-03T18:15:38.410Z,6.47
2018-02-03T18:18:07.292Z,5.50
2018-02-03T18:20:36.217Z,6.37
2018-02-03T18:23:04.350Z,6.17
2018-02-03T18:25:32.508Z,6.00
2018-02-03T18:28:00.644Z,6.97
2018-02-03T18:30:28.793Z,5.60
2018-02-03T18:32:57.709Z,4.50
2018-02-03T18:35:25.807Z,5.15
2018-02-03T18:37:53.932Z,8.20
2018-02-03T18:40:22.062Z,6.37
2018-02-03T18:42:50.247Z,9.13
2018-02-03T18:45:30.265Z,8.85
2018-02-03T18:47:58.447Z,5.45
2018-02-03T18:50:26.544Z,5.28
2018-02-03T18:52:54.706Z,6.03
2018-02-03T18:55:24.368Z,5.00
2018-02-03T18:57:52.510Z,6.15
2018-02-03T19:00:21.434Z,5.05
2018-02-03T19:02:49.587Z,5.18
2018-02-03T19:05:18.525Z,4.80
2018-02-03T19:07:46.653Z,5.23
2018-02-03T19:10:15.580Z,7.00
2018-02-03T19:12:43.704Z,7.90
2018-02-03T19:15:12.593Z,4.35
2018-02-03T19:17:41.499Z,3.87
2018-02-03T19:20:09.694Z,5.20
2018-02-03T19:22:37.827Z,7.27
2018-02-03T19:25:06.742Z,10.07
2018-02-03T19:27:34.875Z,14.25
2018-02-03T19:30:03.008Z,8.57
2018-02-03T19:32:31.134Z,13.38
2018-02-03T19:35:00.034Z,15.07
2018-02-03T19:37:28.954Z,8.20
2018-02-03T19:39:57.101Z,5.40
2018-02-03T19:42:25.236Z,5.25
2018-02-03T19:44:53.407Z,5.30
2018-02-03T19:47:21.544Z,5.80
2018-02-03T19:49:49.806Z,7.15
2018-02-03T19:52:17.940Z,6.70
2018-02-03T19:54:46.114Z,6.18
2018-02-03T19:57:14.303Z,5.93
2018-02-03T19:59:43.205Z,5.60
2018-02-03T20:02:11.335Z,5.75
2018-02-03T20:04:39.485Z,6.35
2018-02-03T20:07:07.637Z,5.90
2018-02-03T20:09:35.773Z,6.10
2018-02-03T20:12:03.883Z,5.25
2018-02-03T20:14:32.022Z,6.45
2018-02-03T20:17:00.916Z,6.03
2018-02-03T20:19:29.890Z,7.18
2018-02-03T20:21:58.045Z,7.70
2018-02-03T20:24:26.201Z,5.78
2018-02-03T20:26:54.410Z,6.05
2018-02-03T20:29:22.545Z,6.70
2018-02-03T20:31:50.735Z,6.25
2018-02-03T20:34:18.878Z,8.80
2018-02-03T20:36:47.046Z,19.95
2018-02-03T20:39:15.237Z,8.18
2018-02-03T20:41:43.417Z,7.95
2018-02-03T20:44:11.615Z,7.03
2018-02-03T20:46:41.304Z,6.85
2018-02-03T20:49:09.454Z,6.85
2018-02-03T20:51:37.654Z,5.00
2018-02-03T20:54:05.838Z,5.40
2018-02-03T20:56:34.008Z,6.60
2018-02-03T20:59:02.177Z,7.47
2018-02-03T21:01:30.383Z,7.40
2018-02-03T21:03:58.486Z,6.60
2018-02-03T21:06:26.665Z,6.37
2018-02-03T21:08:54.825Z,5.85
2018-02-03T21:11:22.994Z,5.25
2018-02-03T21:13:51.189Z,6.57
2018-02-03T21:16:19.350Z,5.82
2018-02-03T21:18:47.551Z,5.43
2018-02-03T21:21:15.678Z,5.72
2018-02-03T21:23:44.587Z,7.03
2018-02-03T21:26:12.738Z,6.12
2018-02-03T21:28:41.676Z,5.93
2018-02-03T21:31:09.822Z,7.03
2018-02-03T21:33:38.046Z,9.18
2018-02-03T21:36:06.247Z,8.60
2018-02-03T21:38:34.416Z,8.80
2018-02-03T21:41:03.443Z,10.00
2018-02-03T21:43:31.601Z,9.90
2018-02-03T21:45:59.832Z,9.25
2018-02-03T21:48:28.773Z,8.60
2018-02-03T21:50:57.403Z,7.65
2018-02-03T21:53:25.566Z,8.53
2018-02-03T21:55:53.712Z,8.65
2018-02-03T21:58:21.953Z,8.10
2018-02-03T22:00:50.150Z,6.50
2018-02-03T22:03:18.331Z,6.57
2018-02-03T22:05:46.517Z,5.80
2018-02-03T22:08:15.401Z,7.40
2018-02-03T22:10:43.528Z,9.45
2018-02-03T22:13:12.458Z,8.10
2018-02-03T22:15:40.620Z,8.65
2018-02-03T22:18:08.730Z,9.10
2018-02-03T22:20:38.444Z,9.63
2018-02-03T22:23:06.657Z,8.90
2018-02-03T22:25:34.801Z,8.45
2018-02-03T22:28:03.714Z,10.10
2018-02-03T22:30:31.843Z,8.35
2018-02-03T22:32:59.969Z,7.75
2018-02-03T22:35:28.229Z,8.38
2018-02-03T22:37:57.156Z,8.07
2018-02-03T22:40:25.286Z,9.23
2018-02-03T22:42:54.244Z,8.00
2018-02-03T22:45:22.336Z,8.05
2018-02-03T22:47:50.454Z,7.85
2018-02-03T22:50:18.594Z,9.82
2018-02-03T22:52:47.477Z,7.63
2018-02-03T22:55:16.379Z,8.70
2018-02-03T22:57:45.268Z,7.28
2018-02-03T23:00:16.073Z,7.55
2018-02-03T23:02:49.870Z,9.18
2018-02-03T23:05:18.032Z,7.82
2018-02-03T23:07:46.171Z,7.23
2018-02-03T23:10:15.105Z,6.85
2018-02-03T23:12:43.277Z,9.55
2018-02-03T23:15:11.401Z,8.73
2018-02-03T23:17:39.548Z,9.68
2018-02-03T23:20:07.774Z,9.65
2018-02-03T23:22:35.892Z,11.60
2018-02-03T23:25:04.790Z,28.00
2018-02-03T23:27:33.043Z,15.93
2018-02-03T23:30:01.152Z,10.98
2018-02-03T23:32:30.052Z,10.30
2018-02-03T23:34:58.181Z,8.63
2018-02-03T23:37:26.302Z,10.10
2018-02-03T23:39:54.444Z,10.30
2018-02-03T23:42:23.353Z,10.70
2018-02-03T23:44:52.266Z,9.32
2018-02-03T23:47:20.390Z,11.75
2018-02-03T23:49:49.297Z,10.95
2018-02-03T23:52:17.439Z,10.17
2018-02-03T23:54:45.570Z,10.27
2018-02-03T23:57:13.684Z,13.90
2018-02-03T23:59:41.817Z,11.20
